sensor_id;sensor_type;location;lat;lon;timestamp;P1;durP1;ratioP1;P2;durP2;ratioP2
57461;SDS011;43308;47.306;8.608;2024-02-28T00:01:22;35.30;;;27.00;;
57461;SDS011;43308;47.306;8.608;2024-02-28T00:03:48;32.60;;;25.77;;
57461;SDS011;43308;47.306;8.608;2024-02-28T00:06:17;37.33;;;26.25;;
57461;SDS011;43308;47.306;8.608;2024-02-28T00:08:43;39.75;;;27.33;;
57461;SDS011;43308;47.306;8.608;2024-02-28T00:11:09;34.55;;;24.83;;
57461;SDS011;43308;47.306;8.608;2024-02-28T00:13:35;34.40;;;24.88;;
57461;SDS011;43308;47.306;8.608;2024-02-28T00:16:01;36.08;;;27.00;;
57461;SDS011;43308;47.306;8.608;2024-02-28T00:18:29;33.67;;;27.02;;
57461;SDS011;43308;47.306;8.608;2024-02-28T00:20:56;37.20;;;27.52;;
57461;SDS011;43308;47.306;8.608;2024-02-28T00:23:22;40.08;;;28.02;;
57461;SDS011;43308;47.306;8.608;2024-02-28T00:25:48;37.40;;;26.60;;
57461;SDS011;43308;47.306;8.608;2024-02-28T00:28:15;34.08;;;25.65;;
57461;SDS011;43308;47.306;8.608;2024-02-28T00:30:42;37.85;;;27.15;;
57461;SDS011;43308;47.306;8.608;2024-02-28T00:33:08;35.58;;;25.63;;
57461;SDS011;43308;47.306;8.608;2024-02-28T00:35:34;38.80;;;27.42;;
57461;SDS011;43308;47.306;8.608;2024-02-28T00:38:01;34.80;;;25.73;;
57461;SDS011;43308;47.306;8.608;2024-02-28T00:40:27;35.88;;;26.58;;
57461;SDS011;43308;47.306;8.608;2024-02-28T00:42:54;35.42;;;26.45;;
57461;SDS011;43308;47.306;8.608;2024-02-28T00:45:20;35.83;;;26.73;;
57461;SDS011;43308;47.306;8.608;2024-02-28T00:47:46;35.53;;;26.17;;
57461;SDS011;43308;47.306;8.608;2024-02-28T00:50:12;36.72;;;27.05;;
57461;SDS011;43308;47.306;8.608;2024-02-28T00:52:38;34.47;;;25.27;;
57461;SDS011;43308;47.306;8.608;2024-02-28T00:55:04;33.90;;;24.42;;
57461;SDS011;43308;47.306;8.608;2024-02-28T00:57:31;38.63;;;27.45;;
57461;SDS011;43308;47.306;8.608;2024-02-28T00:59:57;38.95;;;25.58;;
57461;SDS011;43308;47.306;8.608;2024-02-28T01:02:23;35.50;;;25.60;;
57461;SDS011;43308;47.306;8.608;2024-02-28T01:04:49;43.35;;;26.17;;
57461;SDS011;43308;47.306;8.608;2024-02-28T01:07:17;35.63;;;24.88;;
57461;SDS011;43308;47.306;8.608;2024-02-28T01:09:43;34.13;;;25.75;;
57461;SDS011;43308;47.306;8.608;2024-02-28T01:12:10;34.47;;;27.17;;
57461;SDS011;43308;47.306;8.608;2024-02-28T01:14:37;34.40;;;26.38;;
57461;SDS011;43308;47.306;8.608;2024-02-28T01:17:03;37.15;;;26.27;;
57461;SDS011;43308;47.306;8.608;2024-02-28T01:19:31;37.13;;;26.40;;
57461;SDS011;43308;47.306;8.608;2024-02-28T01:21:57;36.55;;;25.85;;
57461;SDS011;43308;47.306;8.608;2024-02-28T01:24:23;35.13;;;25.00;;
57461;SDS011;43308;47.306;8.608;2024-02-28T01:26:50;39.05;;;26.65;;
57461;SDS011;43308;47.306;8.608;2024-02-28T01:29:16;33.00;;;24.30;;
57461;SDS011;43308;47.306;8.608;2024-02-28T01:31:42;34.05;;;25.42;;
57461;SDS011;43308;47.306;8.608;2024-02-28T01:34:08;36.17;;;27.52;;
57461;SDS011;43308;47.306;8.608;2024-02-28T01:36:34;36.25;;;27.13;;
57461;SDS011;43308;47.306;8.608;2024-02-28T01:39:00;33.53;;;25.88;;
57461;SDS011;43308;47.306;8.608;2024-02-28T01:41:26;34.17;;;25.58;;
57461;SDS011;43308;47.306;8.608;2024-02-28T01:43:53;36.55;;;26.80;;
57461;SDS011;43308;47.306;8.608;2024-02-28T01:46:24;35.65;;;26.80;;
57461;SDS011;43308;47.306;8.608;2024-02-28T01:48:52;36.35;;;25.60;;
57461;SDS011;43308;47.306;8.608;2024-02-28T01:51:21;35.72;;;26.33;;
57461;SDS011;43308;47.306;8.608;2024-02-28T01:53:49;35.33;;;25.60;;
57461;SDS011;43308;47.306;8.608;2024-02-28T01:56:16;38.08;;;27.38;;
57461;SDS011;43308;47.306;8.608;2024-02-28T01:58:47;40.50;;;26.05;;
57461;SDS011;43308;47.306;8.608;2024-02-28T02:01:14;35.92;;;25.75;;
57461;SDS011;43308;47.306;8.608;2024-02-28T02:03:45;35.45;;;26.63;;
57461;SDS011;43308;47.306;8.608;2024-02-28T02:06:12;35.75;;;26.15;;
57461;SDS011;43308;47.306;8.608;2024-02-28T02:08:38;35.45;;;25.65;;
57461;SDS011;43308;47.306;8.608;2024-02-28T02:11:05;34.03;;;26.55;;
57461;SDS011;43308;47.306;8.608;2024-02-28T02:13:33;37.17;;;26.58;;
57461;SDS011;43308;47.306;8.608;2024-02-28T02:16:01;36.28;;;24.80;;
57461;SDS011;43308;47.306;8.608;2024-02-28T02:18:27;37.45;;;27.67;;
57461;SDS011;43308;47.306;8.608;2024-02-28T02:20:55;31.30;;;23.45;;
57461;SDS011;43308;47.306;8.608;2024-02-28T02:23:27;36.70;;;26.52;;
57461;SDS011;43308;47.306;8.608;2024-02-28T02:25:53;34.72;;;25.65;;
57461;SDS011;43308;47.306;8.608;2024-02-28T02:28:19;33.42;;;25.35;;
57461;SDS011;43308;47.306;8.608;2024-02-28T02:30:45;37.10;;;25.10;;
57461;SDS011;43308;47.306;8.608;2024-02-28T02:33:13;32.63;;;24.63;;
57461;SDS011;43308;47.306;8.608;2024-02-28T02:35:40;33.17;;;25.73;;
57461;SDS011;43308;47.306;8.608;2024-02-28T02:38:06;34.33;;;25.75;;
57461;SDS011;43308;47.306;8.608;2024-02-28T02:40:32;36.05;;;26.52;;
57461;SDS011;43308;47.306;8.608;2024-02-28T02:42:58;36.05;;;26.75;;
57461;SDS011;43308;47.306;8.608;2024-02-28T02:45:24;36.85;;;25.48;;
57461;SDS011;43308;47.306;8.608;2024-02-28T02:47:49;36.78;;;26.55;;
57461;SDS011;43308;47.306;8.608;2024-02-28T02:50:15;36.92;;;26.85;;
57461;SDS011;43308;47.306;8.608;2024-02-28T02:52:41;37.33;;;26.25;;
57461;SDS011;43308;47.306;8.608;2024-02-28T02:55:07;32.70;;;25.50;;
57461;SDS011;43308;47.306;8.608;2024-02-28T02:57:33;38.33;;;26.58;;
57461;SDS011;43308;47.306;8.608;2024-02-28T02:59:59;33.38;;;25.23;;
57461;SDS011;43308;47.306;8.608;2024-02-28T03:02:25;36.55;;;25.67;;
57461;SDS011;43308;47.306;8.608;2024-02-28T03:04:52;34.97;;;24.95;;
57461;SDS011;43308;47.306;8.608;2024-02-28T03:07:18;34.75;;;25.98;;
57461;SDS011;43308;47.306;8.608;2024-02-28T03:09:43;35.63;;;26.42;;
57461;SDS011;43308;47.306;8.608;2024-02-28T03:12:09;34.40;;;25.58;;
57461;SDS011;43308;47.306;8.608;2024-02-28T03:14:35;38.00;;;26.27;;
57461;SDS011;43308;47.306;8.608;2024-02-28T03:17:01;36.92;;;25.38;;
57461;SDS011;43308;47.306;8.608;2024-02-28T03:19:27;36.85;;;25.55;;
57461;SDS011;43308;47.306;8.608;2024-02-28T03:21:53;37.10;;;25.20;;
57461;SDS011;43308;47.306;8.608;2024-02-28T03:24:20;33.72;;;25.10;;
57461;SDS011;43308;47.306;8.608;2024-02-28T03:26:46;34.83;;;24.42;;
57461;SDS011;43308;47.306;8.608;2024-02-28T03:29:12;33.85;;;24.95;;
57461;SDS011;43308;47.306;8.608;2024-02-28T03:31:38;34.25;;;25.33;;
57461;SDS011;43308;47.306;8.608;2024-02-28T03:34:04;35.60;;;25.67;;
57461;SDS011;43308;47.306;8.608;2024-02-28T03:36:30;35.60;;;26.10;;
57461;SDS011;43308;47.306;8.608;2024-02-28T03:38:56;36.03;;;24.73;;
57461;SDS011;43308;47.306;8.608;2024-02-28T03:41:22;36.25;;;24.58;;
57461;SDS011;43308;47.306;8.608;2024-02-28T03:43:48;33.83;;;24.10;;
57461;SDS011;43308;47.306;8.608;2024-02-28T03:46:14;39.88;;;25.55;;
57461;SDS011;43308;47.306;8.608;2024-02-28T03:48:40;34.20;;;25.25;;
57461;SDS011;43308;47.306;8.608;2024-02-28T03:51:06;30.70;;;23.42;;
57461;SDS011;43308;47.306;8.608;2024-02-28T03:53:32;34.97;;;25.75;;
57461;SDS011;43308;47.306;8.608;2024-02-28T03:55:58;36.60;;;25.40;;
57461;SDS011;43308;47.306;8.608;2024-02-28T03:58:24;35.72;;;24.70;;
57461;SDS011;43308;47.306;8.608;2024-02-28T04:00:50;35.70;;;26.77;;
57461;SDS011;43308;47.306;8.608;2024-02-28T04:03:15;32.85;;;24.25;;
57461;SDS011;43308;47.306;8.608;2024-02-28T04:05:42;36.88;;;24.67;;
57461;SDS011;43308;47.306;8.608;2024-02-28T04:08:08;36.60;;;24.92;;
57461;SDS011;43308;47.306;8.608;2024-02-28T04:10:33;32.83;;;23.92;;
57461;SDS011;43308;47.306;8.608;2024-02-28T04:12:59;37.80;;;25.48;;
57461;SDS011;43308;47.306;8.608;2024-02-28T04:15:25;32.17;;;23.52;;
57461;SDS011;43308;47.306;8.608;2024-02-28T04:17:51;38.60;;;25.13;;
57461;SDS011;43308;47.306;8.608;2024-02-28T04:20:17;32.75;;;21.95;;
57461;SDS011;43308;47.306;8.608;2024-02-28T04:22:43;35.97;;;24.85;;
57461;SDS011;43308;47.306;8.608;2024-02-28T04:25:09;34.97;;;24.50;;
57461;SDS011;43308;47.306;8.608;2024-02-28T04:27:36;32.63;;;23.95;;
57461;SDS011;43308;47.306;8.608;2024-02-28T04:30:02;32.67;;;23.23;;
57461;SDS011;43308;47.306;8.608;2024-02-28T04:32:29;41.20;;;26.13;;
57461;SDS011;43308;47.306;8.608;2024-02-28T04:34:55;37.83;;;25.92;;
57461;SDS011;43308;47.306;8.608;2024-02-28T04:37:21;36.05;;;25.83;;
57461;SDS011;43308;47.306;8.608;2024-02-28T04:39:47;32.85;;;22.63;;
57461;SDS011;43308;47.306;8.608;2024-02-28T04:42:13;34.15;;;23.35;;
57461;SDS011;43308;47.306;8.608;2024-02-28T04:44:39;31.90;;;23.02;;
57461;SDS011;43308;47.306;8.608;2024-02-28T04:47:05;32.88;;;24.58;;
57461;SDS011;43308;47.306;8.608;2024-02-28T04:49:31;30.83;;;23.95;;
57461;SDS011;43308;47.306;8.608;2024-02-28T04:51:57;31.35;;;22.60;;
57461;SDS011;43308;47.306;8.608;2024-02-28T04:54:24;29.30;;;21.80;;
57461;SDS011;43308;47.306;8.608;2024-02-28T04:56:50;34.20;;;23.67;;
57461;SDS011;43308;47.306;8.608;2024-02-28T04:59:16;29.17;;;21.52;;
57461;SDS011;43308;47.306;8.608;2024-02-28T05:01:42;34.05;;;22.73;;
57461;SDS011;43308;47.306;8.608;2024-02-28T05:04:09;33.97;;;24.10;;
57461;SDS011;43308;47.306;8.608;2024-02-28T05:06:35;35.38;;;23.98;;
57461;SDS011;43308;47.306;8.608;2024-02-28T05:09:01;31.30;;;22.40;;
57461;SDS011;43308;47.306;8.608;2024-02-28T05:11:29;32.80;;;23.90;;
57461;SDS011;43308;47.306;8.608;2024-02-28T05:13:55;32.75;;;22.05;;
57461;SDS011;43308;47.306;8.608;2024-02-28T05:16:21;29.63;;;22.35;;
57461;SDS011;43308;47.306;8.608;2024-02-28T05:18:46;30.75;;;21.88;;
57461;SDS011;43308;47.306;8.608;2024-02-28T05:21:13;32.35;;;22.00;;
57461;SDS011;43308;47.306;8.608;2024-02-28T05:23:39;32.45;;;23.20;;
57461;SDS011;43308;47.306;8.608;2024-02-28T05:26:06;33.17;;;22.65;;
57461;SDS011;43308;47.306;8.608;2024-02-28T05:28:33;33.38;;;21.50;;
57461;SDS011;43308;47.306;8.608;2024-02-28T05:33:52;29.02;;;21.90;;
57461;SDS011;43308;47.306;8.608;2024-02-28T05:36:20;30.20;;;20.15;;
57461;SDS011;43308;47.306;8.608;2024-02-28T05:38:47;32.13;;;20.58;;
57461;SDS011;43308;47.306;8.608;2024-02-28T05:41:13;31.42;;;21.48;;
57461;SDS011;43308;47.306;8.608;2024-02-28T05:43:40;34.65;;;22.40;;
57461;SDS011;43308;47.306;8.608;2024-02-28T05:46:06;30.60;;;22.02;;
57461;SDS011;43308;47.306;8.608;2024-02-28T05:48:33;31.95;;;20.92;;
57461;SDS011;43308;47.306;8.608;2024-02-28T05:51:00;29.65;;;20.45;;
57461;SDS011;43308;47.306;8.608;2024-02-28T05:53:26;28.83;;;19.27;;
57461;SDS011;43308;47.306;8.608;2024-02-28T05:55:53;26.80;;;19.65;;
57461;SDS011;43308;47.306;8.608;2024-02-28T05:58:22;28.75;;;20.70;;
57461;SDS011;43308;47.306;8.608;2024-02-28T06:00:49;28.50;;;19.92;;
57461;SDS011;43308;47.306;8.608;2024-02-28T06:03:14;27.55;;;18.70;;
57461;SDS011;43308;47.306;8.608;2024-02-28T06:05:40;27.25;;;19.58;;
57461;SDS011;43308;47.306;8.608;2024-02-28T06:08:06;29.75;;;20.05;;
57461;SDS011;43308;47.306;8.608;2024-02-28T06:10:32;27.08;;;19.02;;
57461;SDS011;43308;47.306;8.608;2024-02-28T06:12:58;29.30;;;20.30;;
57461;SDS011;43308;47.306;8.608;2024-02-28T06:15:24;29.20;;;20.58;;
57461;SDS011;43308;47.306;8.608;2024-02-28T06:17:50;26.40;;;19.10;;
57461;SDS011;43308;47.306;8.608;2024-02-28T06:20:16;27.90;;;19.35;;
57461;SDS011;43308;47.306;8.608;2024-02-28T06:22:41;28.20;;;19.17;;
57461;SDS011;43308;47.306;8.608;2024-02-28T06:25:07;28.63;;;18.92;;
57461;SDS011;43308;47.306;8.608;2024-02-28T06:27:43;31.02;;;19.63;;
57461;SDS011;43308;47.306;8.608;2024-02-28T06:30:09;28.05;;;19.52;;
57461;SDS011;43308;47.306;8.608;2024-02-28T06:32:35;28.90;;;20.23;;
57461;SDS011;43308;47.306;8.608;2024-02-28T06:35:01;26.90;;;18.75;;
57461;SDS011;43308;47.306;8.608;2024-02-28T06:37:27;26.10;;;19.02;;
57461;SDS011;43308;47.306;8.608;2024-02-28T06:39:53;25.23;;;17.92;;
57461;SDS011;43308;47.306;8.608;2024-02-28T06:42:19;24.75;;;17.90;;
57461;SDS011;43308;47.306;8.608;2024-02-28T06:44:45;32.38;;;19.80;;
57461;SDS011;43308;47.306;8.608;2024-02-28T06:47:11;25.88;;;18.20;;
57461;SDS011;43308;47.306;8.608;2024-02-28T06:49:36;27.67;;;19.23;;
57461;SDS011;43308;47.306;8.608;2024-02-28T06:52:02;25.38;;;17.92;;
57461;SDS011;43308;47.306;8.608;2024-02-28T06:54:28;26.27;;;18.52;;
57461;SDS011;43308;47.306;8.608;2024-02-28T06:56:54;26.20;;;18.85;;
57461;SDS011;43308;47.306;8.608;2024-02-28T06:59:20;26.52;;;18.38;;
57461;SDS011;43308;47.306;8.608;2024-02-28T07:01:46;27.20;;;19.02;;
57461;SDS011;43308;47.306;8.608;2024-02-28T07:04:12;26.30;;;18.60;;
57461;SDS011;43308;47.306;8.608;2024-02-28T07:06:38;28.92;;;20.20;;
57461;SDS011;43308;47.306;8.608;2024-02-28T07:09:07;27.45;;;17.90;;
57461;SDS011;43308;47.306;8.608;2024-02-28T07:11:33;24.85;;;16.88;;
57461;SDS011;43308;47.306;8.608;2024-02-28T07:13:59;27.42;;;18.90;;
57461;SDS011;43308;47.306;8.608;2024-02-28T07:16:30;24.48;;;17.35;;
57461;SDS011;43308;47.306;8.608;2024-02-28T07:19:00;24.08;;;15.50;;
57461;SDS011;43308;47.306;8.608;2024-02-28T07:21:26;23.40;;;16.95;;
57461;SDS011;43308;47.306;8.608;2024-02-28T07:23:52;26.73;;;16.17;;
57461;SDS011;43308;47.306;8.608;2024-02-28T07:26:19;21.63;;;14.57;;
57461;SDS011;43308;47.306;8.608;2024-02-28T07:28:45;24.13;;;15.15;;
57461;SDS011;43308;47.306;8.608;2024-02-28T07:31:17;23.95;;;15.85;;
57461;SDS011;43308;47.306;8.608;2024-02-28T07:33:43;22.08;;;16.63;;
57461;SDS011;43308;47.306;8.608;2024-02-28T07:36:09;23.10;;;15.10;;
57461;SDS011;43308;47.306;8.608;2024-02-28T07:38:35;22.88;;;15.80;;
57461;SDS011;43308;47.306;8.608;2024-02-28T07:41:01;23.05;;;14.43;;
57461;SDS011;43308;47.306;8.608;2024-02-28T07:43:27;20.98;;;14.65;;
57461;SDS011;43308;47.306;8.608;2024-02-28T07:45:54;20.90;;;16.33;;
57461;SDS011;43308;47.306;8.608;2024-02-28T07:48:20;20.75;;;13.90;;
57461;SDS011;43308;47.306;8.608;2024-02-28T07:50:45;19.92;;;14.65;;
57461;SDS011;43308;47.306;8.608;2024-02-28T07:53:12;24.17;;;14.75;;
57461;SDS011;43308;47.306;8.608;2024-02-28T07:55:38;18.77;;;13.00;;
57461;SDS011;43308;47.306;8.608;2024-02-28T07:58:04;22.92;;;15.27;;
57461;SDS011;43308;47.306;8.608;2024-02-28T08:00:34;19.88;;;13.70;;
57461;SDS011;43308;47.306;8.608;2024-02-28T08:03:01;22.27;;;14.75;;
57461;SDS011;43308;47.306;8.608;2024-02-28T08:05:27;18.98;;;13.50;;
57461;SDS011;43308;47.306;8.608;2024-02-28T08:07:53;19.73;;;13.95;;
57461;SDS011;43308;47.306;8.608;2024-02-28T08:10:20;20.33;;;14.88;;
57461;SDS011;43308;47.306;8.608;2024-02-28T08:12:46;18.40;;;13.85;;
57461;SDS011;43308;47.306;8.608;2024-02-28T08:15:12;19.45;;;13.65;;
57461;SDS011;43308;47.306;8.608;2024-02-28T08:17:38;20.20;;;13.18;;
57461;SDS011;43308;47.306;8.608;2024-02-28T08:20:04;19.38;;;13.68;;
57461;SDS011;43308;47.306;8.608;2024-02-28T08:22:31;19.08;;;13.50;;
57461;SDS011;43308;47.306;8.608;2024-02-28T08:24:57;18.45;;;13.35;;
57461;SDS011;43308;47.306;8.608;2024-02-28T08:27:23;17.38;;;13.30;;
57461;SDS011;43308;47.306;8.608;2024-02-28T08:29:49;16.92;;;12.85;;
57461;SDS011;43308;47.306;8.608;2024-02-28T08:32:16;19.45;;;13.50;;
57461;SDS011;43308;47.306;8.608;2024-02-28T08:34:43;16.30;;;11.85;;
57461;SDS011;43308;47.306;8.608;2024-02-28T08:37:10;16.58;;;13.55;;
57461;SDS011;43308;47.306;8.608;2024-02-28T08:39:36;19.15;;;12.75;;
57461;SDS011;43308;47.306;8.608;2024-02-28T08:42:02;18.77;;;13.73;;
57461;SDS011;43308;47.306;8.608;2024-02-28T08:44:28;19.75;;;13.82;;
57461;SDS011;43308;47.306;8.608;2024-02-28T08:46:54;18.00;;;13.40;;
57461;SDS011;43308;47.306;8.608;2024-02-28T08:49:19;19.95;;;14.02;;
57461;SDS011;43308;47.306;8.608;2024-02-28T08:51:45;19.05;;;14.23;;
57461;SDS011;43308;47.306;8.608;2024-02-28T08:54:11;19.95;;;12.93;;
57461;SDS011;43308;47.306;8.608;2024-02-28T08:56:37;17.75;;;13.15;;
57461;SDS011;43308;47.306;8.608;2024-02-28T08:59:03;18.38;;;13.93;;
57461;SDS011;43308;47.306;8.608;2024-02-28T09:01:29;18.92;;;13.30;;
57461;SDS011;43308;47.306;8.608;2024-02-28T09:03:55;19.38;;;13.85;;
57461;SDS011;43308;47.306;8.608;2024-02-28T09:06:21;19.35;;;13.43;;
57461;SDS011;43308;47.306;8.608;2024-02-28T09:08:47;26.77;;;15.00;;
57461;SDS011;43308;47.306;8.608;2024-02-28T09:11:13;18.75;;;14.20;;
57461;SDS011;43308;47.306;8.608;2024-02-28T09:13:39;18.60;;;13.93;;
57461;SDS011;43308;47.306;8.608;2024-02-28T09:16:05;22.30;;;14.75;;
57461;SDS011;43308;47.306;8.608;2024-02-28T09:18:31;17.65;;;12.93;;
57461;SDS011;43308;47.306;8.608;2024-02-28T09:20:56;17.58;;;12.93;;
57461;SDS011;43308;47.306;8.608;2024-02-28T09:23:23;20.35;;;14.77;;
57461;SDS011;43308;47.306;8.608;2024-02-28T09:25:49;20.10;;;13.73;;
57461;SDS011;43308;47.306;8.608;2024-02-28T09:28:14;19.52;;;14.35;;
57461;SDS011;43308;47.306;8.608;2024-02-28T09:30:42;21.70;;;14.95;;
57461;SDS011;43308;47.306;8.608;2024-02-28T09:33:08;20.40;;;13.73;;
57461;SDS011;43308;47.306;8.608;2024-02-28T09:35:35;20.92;;;14.23;;
57461;SDS011;43308;47.306;8.608;2024-02-28T09:38:02;22.65;;;15.68;;
57461;SDS011;43308;47.306;8.608;2024-02-28T09:40:28;22.75;;;15.25;;
57461;SDS011;43308;47.306;8.608;2024-02-28T09:43:03;19.48;;;14.25;;
57461;SDS011;43308;47.306;8.608;2024-02-28T09:45:29;21.40;;;15.07;;
57461;SDS011;43308;47.306;8.608;2024-02-28T09:47:57;19.80;;;14.00;;
57461;SDS011;43308;47.306;8.608;2024-02-28T09:50:25;18.55;;;15.07;;
57461;SDS011;43308;47.306;8.608;2024-02-28T09:52:51;21.42;;;14.73;;
57461;SDS011;43308;47.306;8.608;2024-02-28T09:55:17;23.27;;;16.30;;
57461;SDS011;43308;47.306;8.608;2024-02-28T09:57:43;24.70;;;14.60;;
57461;SDS011;43308;47.306;8.608;2024-02-28T10:00:14;22.52;;;14.80;;
57461;SDS011;43308;47.306;8.608;2024-02-28T10:02:45;22.98;;;15.70;;
57461;SDS011;43308;47.306;8.608;2024-02-28T10:05:15;20.38;;;14.98;;
57461;SDS011;43308;47.306;8.608;2024-02-28T10:07:42;26.50;;;15.88;;
57461;SDS011;43308;47.306;8.608;2024-02-28T10:10:08;26.02;;;16.30;;
57461;SDS011;43308;47.306;8.608;2024-02-28T10:12:34;21.02;;;14.93;;
57461;SDS011;43308;47.306;8.608;2024-02-28T10:15:00;21.58;;;15.32;;
57461;SDS011;43308;47.306;8.608;2024-02-28T10:17:26;22.65;;;16.45;;
57461;SDS011;43308;47.306;8.608;2024-02-28T10:19:52;24.77;;;16.88;;
57461;SDS011;43308;47.306;8.608;2024-02-28T10:22:18;22.67;;;17.00;;
57461;SDS011;43308;47.306;8.608;2024-02-28T10:24:44;23.48;;;16.52;;
57461;SDS011;43308;47.306;8.608;2024-02-28T10:27:11;25.98;;;17.92;;
57461;SDS011;43308;47.306;8.608;2024-02-28T10:29:41;28.38;;;18.40;;
57461;SDS011;43308;47.306;8.608;2024-02-28T10:32:09;25.27;;;17.45;;
57461;SDS011;43308;47.306;8.608;2024-02-28T10:34:36;25.48;;;17.40;;
57461;SDS011;43308;47.306;8.608;2024-02-28T10:37:03;24.50;;;16.92;;
57461;SDS011;43308;47.306;8.608;2024-02-28T10:39:30;24.58;;;18.02;;
57461;SDS011;43308;47.306;8.608;2024-02-28T10:41:58;29.52;;;17.40;;
57461;SDS011;43308;47.306;8.608;2024-02-28T10:44:25;24.15;;;17.38;;
57461;SDS011;43308;47.306;8.608;2024-02-28T10:46:52;26.98;;;19.38;;
57461;SDS011;43308;47.306;8.608;2024-02-28T10:49:19;26.45;;;18.00;;
57461;SDS011;43308;47.306;8.608;2024-02-28T10:51:45;27.67;;;18.35;;
57461;SDS011;43308;47.306;8.608;2024-02-28T10:54:14;27.85;;;18.60;;
57461;SDS011;43308;47.306;8.608;2024-02-28T10:56:41;25.30;;;17.77;;
57461;SDS011;43308;47.306;8.608;2024-02-28T10:59:08;28.50;;;19.40;;
57461;SDS011;43308;47.306;8.608;2024-02-28T11:01:35;24.80;;;16.73;;
57461;SDS011;43308;47.306;8.608;2024-02-28T11:04:03;28.95;;;18.98;;
57461;SDS011;43308;47.306;8.608;2024-02-28T11:06:29;23.80;;;17.50;;
57461;SDS011;43308;47.306;8.608;2024-02-28T11:08:58;26.40;;;18.25;;
57461;SDS011;43308;47.306;8.608;2024-02-28T11:11:25;22.33;;;17.10;;
57461;SDS011;43308;47.306;8.608;2024-02-28T11:13:57;24.33;;;17.77;;
57461;SDS011;43308;47.306;8.608;2024-02-28T11:16:29;23.77;;;16.38;;
57461;SDS011;43308;47.306;8.608;2024-02-28T11:18:59;24.25;;;16.58;;
57461;SDS011;43308;47.306;8.608;2024-02-28T11:21:27;23.63;;;16.75;;
57461;SDS011;43308;47.306;8.608;2024-02-28T11:23:57;28.85;;;17.75;;
57461;SDS011;43308;47.306;8.608;2024-02-28T11:26:24;22.38;;;16.70;;
57461;SDS011;43308;47.306;8.608;2024-02-28T11:28:50;27.80;;;18.08;;
57461;SDS011;43308;47.306;8.608;2024-02-28T11:31:15;22.48;;;16.73;;
57461;SDS011;43308;47.306;8.608;2024-02-28T11:33:41;25.42;;;17.30;;
57461;SDS011;43308;47.306;8.608;2024-02-28T11:36:08;24.55;;;17.27;;
57461;SDS011;43308;47.306;8.608;2024-02-28T11:38:36;26.05;;;17.55;;
57461;SDS011;43308;47.306;8.608;2024-02-28T11:41:04;25.20;;;17.85;;
57461;SDS011;43308;47.306;8.608;2024-02-28T11:43:33;26.60;;;19.70;;
57461;SDS011;43308;47.306;8.608;2024-02-28T11:46:08;25.45;;;18.95;;
57461;SDS011;43308;47.306;8.608;2024-02-28T11:48:35;23.75;;;16.38;;
57461;SDS011;43308;47.306;8.608;2024-02-28T11:51:01;24.52;;;17.60;;
57461;SDS011;43308;47.306;8.608;2024-02-28T11:53:27;25.25;;;17.25;;
57461;SDS011;43308;47.306;8.608;2024-02-28T11:55:53;24.05;;;17.80;;
57461;SDS011;43308;47.306;8.608;2024-02-28T11:58:21;24.70;;;18.40;;
57461;SDS011;43308;47.306;8.608;2024-02-28T12:00:47;25.95;;;17.90;;
57461;SDS011;43308;47.306;8.608;2024-02-28T12:03:20;25.00;;;19.20;;
57461;SDS011;43308;47.306;8.608;2024-02-28T12:05:46;23.42;;;17.92;;
57461;SDS011;43308;47.306;8.608;2024-02-28T12:08:12;25.85;;;18.67;;
57461;SDS011;43308;47.306;8.608;2024-02-28T12:10:38;24.17;;;17.42;;
57461;SDS011;43308;47.306;8.608;2024-02-28T12:13:04;25.15;;;18.45;;
57461;SDS011;43308;47.306;8.608;2024-02-28T12:15:30;26.33;;;17.52;;
57461;SDS011;43308;47.306;8.608;2024-02-28T12:17:57;25.40;;;18.10;;
57461;SDS011;43308;47.306;8.608;2024-02-28T12:20:26;24.02;;;16.85;;
57461;SDS011;43308;47.306;8.608;2024-02-28T12:22:51;25.42;;;17.90;;
57461;SDS011;43308;47.306;8.608;2024-02-28T12:25:17;26.00;;;17.95;;
57461;SDS011;43308;47.306;8.608;2024-02-28T12:27:44;26.52;;;18.20;;
57461;SDS011;43308;47.306;8.608;2024-02-28T12:30:09;26.08;;;18.17;;
57461;SDS011;43308;47.306;8.608;2024-02-28T12:32:36;24.98;;;18.25;;
57461;SDS011;43308;47.306;8.608;2024-02-28T12:35:01;25.30;;;17.88;;
57461;SDS011;43308;47.306;8.608;2024-02-28T12:37:29;25.50;;;18.25;;
57461;SDS011;43308;47.306;8.608;2024-02-28T12:39:55;26.55;;;18.65;;
57461;SDS011;43308;47.306;8.608;2024-02-28T12:42:21;29.52;;;18.73;;
57461;SDS011;43308;47.306;8.608;2024-02-28T12:44:48;26.38;;;18.50;;
57461;SDS011;43308;47.306;8.608;2024-02-28T12:47:14;27.98;;;18.70;;
57461;SDS011;43308;47.306;8.608;2024-02-28T12:49:40;26.38;;;19.35;;
57461;SDS011;43308;47.306;8.608;2024-02-28T12:52:06;27.60;;;18.65;;
57461;SDS011;43308;47.306;8.608;2024-02-28T12:54:32;27.35;;;18.25;;
57461;SDS011;43308;47.306;8.608;2024-02-28T12:56:58;23.20;;;18.58;;
57461;SDS011;43308;47.306;8.608;2024-02-28T12:59:29;25.00;;;17.67;;
57461;SDS011;43308;47.306;8.608;2024-02-28T13:01:54;30.65;;;19.75;;
57461;SDS011;43308;47.306;8.608;2024-02-28T13:04:20;25.70;;;17.50;;
57461;SDS011;43308;47.306;8.608;2024-02-28T13:06:46;24.60;;;18.50;;
57461;SDS011;43308;47.306;8.608;2024-02-28T13:09:12;26.17;;;18.02;;
57461;SDS011;43308;47.306;8.608;2024-02-28T13:11:38;25.08;;;17.88;;
57461;SDS011;43308;47.306;8.608;2024-02-28T13:14:05;24.80;;;17.52;;
57461;SDS011;43308;47.306;8.608;2024-02-28T13:16:31;23.38;;;17.52;;
57461;SDS011;43308;47.306;8.608;2024-02-28T13:18:57;24.85;;;18.65;;
57461;SDS011;43308;47.306;8.608;2024-02-28T13:21:22;28.95;;;17.92;;
57461;SDS011;43308;47.306;8.608;2024-02-28T13:23:48;27.88;;;19.40;;
57461;SDS011;43308;47.306;8.608;2024-02-28T13:26:14;25.17;;;18.92;;
57461;SDS011;43308;47.306;8.608;2024-02-28T13:28:43;25.65;;;17.60;;
57461;SDS011;43308;47.306;8.608;2024-02-28T13:31:10;23.00;;;17.27;;
57461;SDS011;43308;47.306;8.608;2024-02-28T13:33:36;23.80;;;18.40;;
57461;SDS011;43308;47.306;8.608;2024-02-28T13:36:03;24.98;;;17.88;;
57461;SDS011;43308;47.306;8.608;2024-02-28T13:38:29;26.27;;;17.58;;
57461;SDS011;43308;47.306;8.608;2024-02-28T13:40:56;24.08;;;18.02;;
57461;SDS011;43308;47.306;8.608;2024-02-28T13:43:22;25.10;;;17.58;;
57461;SDS011;43308;47.306;8.608;2024-02-28T13:45:48;25.40;;;18.33;;
57461;SDS011;43308;47.306;8.608;2024-02-28T13:48:20;21.90;;;17.70;;
57461;SDS011;43308;47.306;8.608;2024-02-28T13:50:47;26.17;;;18.60;;
57461;SDS011;43308;47.306;8.608;2024-02-28T13:53:14;24.63;;;18.00;;
57461;SDS011;43308;47.306;8.608;2024-02-28T13:55:41;26.70;;;17.95;;
57461;SDS011;43308;47.306;8.608;2024-02-28T13:58:11;23.88;;;16.48;;
57461;SDS011;43308;47.306;8.608;2024-02-28T14:00:38;24.02;;;17.48;;
57461;SDS011;43308;47.306;8.608;2024-02-28T14:03:04;22.40;;;16.08;;
57461;SDS011;43308;47.306;8.608;2024-02-28T14:05:32;23.90;;;17.30;;
57461;SDS011;43308;47.306;8.608;2024-02-28T14:07:58;24.80;;;17.17;;
57461;SDS011;43308;47.306;8.608;2024-02-28T14:10:25;22.80;;;17.38;;
57461;SDS011;43308;47.306;8.608;2024-02-28T14:12:51;26.02;;;18.02;;
57461;SDS011;43308;47.306;8.608;2024-02-28T14:15:20;22.73;;;17.15;;
57461;SDS011;43308;47.306;8.608;2024-02-28T14:17:48;24.98;;;18.63;;
57461;SDS011;43308;47.306;8.608;2024-02-28T14:20:14;25.10;;;17.95;;